createdAt,value
2023-05-05T00:02:25.486Z,100.00
2023-05-05T00:07:28.353Z,100.00
2023-05-05T00:12:31.288Z,100.00
2023-05-05T00:17:35.522Z,100.00
2023-05-05T00:22:38.215Z,100.00
2023-05-05T00:27:41.078Z,100.00
2023-05-05T00:32:45.243Z,100.00
2023-05-05T00:37:49.166Z,100.00
2023-05-05T00:42:52.422Z,100.00
2023-05-05T00:48:00.154Z,100.00
2023-05-05T00:53:04.559Z,100.00
2023-05-05T00:58:07.645Z,100.00
2023-05-05T01:03:12.981Z,100.00
2023-05-05T01:08:42.639Z,100.00
2023-05-05T01:13:53.740Z,100.00
2023-05-05T01:19:08.342Z,100.00
2023-05-05T01:24:28.165Z,100.00
2023-05-05T01:29:56.271Z,100.00
2023-05-05T01:35:03.595Z,100.00
2023-05-05T01:40:10.640Z,100.00
2023-05-05T01:45:15.681Z,100.00
2023-05-05T01:50:20.620Z,100.00
2023-05-05T01:55:27.299Z,100.00
2023-05-05T02:00:31.805Z,100.00
2023-05-05T02:05:38.736Z,100.00
2023-05-05T02:10:42.797Z,100.00
2023-05-05T02:15:46.566Z,100.00
2023-05-05T02:20:50.764Z,100.00
2023-05-05T02:25:57.058Z,100.00
2023-05-05T02:31:01.800Z,100.00
2023-05-05T02:36:14.339Z,100.00
2023-05-05T02:41:28.164Z,100.00
2023-05-05T02:46:32.336Z,100.00
2023-05-05T02:51:36.519Z,100.00
2023-05-05T02:56:49.926Z,100.00
2023-05-05T03:02:02.086Z,100.00
2023-05-05T03:07:14.121Z,100.00
2023-05-05T03:12:23.433Z,100.00
2023-05-05T03:17:36.786Z,100.00
2023-05-05T03:22:41.733Z,100.00
2023-05-05T03:27:48.415Z,100.00
2023-05-05T03:32:55.192Z,100.00
2023-05-05T03:37:59.930Z,100.00
2023-05-05T03:43:03.086Z,100.00
2023-05-05T03:48:06.988Z,100.00
2023-05-05T03:53:11.473Z,100.00
2023-05-05T03:58:14.720Z,100.00
2023-05-05T04:03:18.817Z,100.00
2023-05-05T04:08:23.595Z,100.00
2023-05-05T04:13:26.818Z,100.00
2023-05-05T04:18:31.282Z,100.00
2023-05-05T04:23:35.968Z,100.00
2023-05-05T04:28:39.134Z,100.00
2023-05-05T04:33:42.580Z,100.00
2023-05-05T04:38:47.251Z,100.00
2023-05-05T04:43:50.184Z,100.00
2023-05-05T04:48:53.512Z,100.00
2023-05-05T04:53:58.588Z,100.00
2023-05-05T04:59:01.541Z,100.00
2023-05-05T05:04:05.235Z,100.00
2023-05-05T05:09:10.181Z,100.00
2023-05-05T05:14:12.927Z,100.00
2023-05-05T05:19:18.588Z,100.00
2023-05-05T05:24:23.216Z,100.00
2023-05-05T05:29:27.616Z,100.00
2023-05-05T05:34:32.581Z,100.00
2023-05-05T05:39:37.599Z,100.00
2023-05-05T05:44:43.392Z,100.00
2023-05-05T05:49:46.559Z,100.00
2023-05-05T05:54:51.601Z,100.00
2023-05-05T05:59:55.431Z,100.00
2023-05-05T06:04:58.963Z,100.00
2023-05-05T06:10:18.676Z,98.45
2023-05-05T06:15:29.232Z,96.81
2023-05-05T06:20:32.928Z,93.79
2023-05-05T06:25:40.553Z,92.57
2023-05-05T06:30:46.778Z,92.21
2023-05-05T06:35:49.616Z,91.82
2023-05-05T06:40:54.631Z,90.40
2023-05-05T06:45:57.394Z,90.02
2023-05-05T06:51:00.356Z,90.33
2023-05-05T06:56:04.688Z,90.57
2023-05-05T07:01:08.557Z,92.13
2023-05-05T07:06:12.473Z,91.44
2023-05-05T07:11:17.831Z,91.66
2023-05-05T07:16:22.160Z,90.40
2023-05-05T07:21:24.956Z,89.52
2023-05-05T07:26:29.439Z,87.74
2023-05-05T07:31:32.476Z,86.21
2023-05-05T07:36:36.815Z,84.20
2023-05-05T07:41:42.758Z,82.49
2023-05-05T07:46:47.154Z,80.83
2023-05-05T07:51:50.363Z,79.22
2023-05-05T07:56:54.705Z,77.58
2023-05-05T08:01:57.674Z,77.85
2023-05-05T08:07:00.413Z,77.17
2023-05-05T08:12:05.783Z,78.39
2023-05-05T08:17:08.581Z,76.77
2023-05-05T08:22:15.582Z,75.37
2023-05-05T08:27:19.738Z,76.74
2023-05-05T08:32:22.657Z,75.20
2023-05-05T08:37:26.435Z,74.64
2023-05-05T08:42:38.205Z,73.06
2023-05-05T08:47:45.032Z,71.47
2023-05-05T08:52:56.809Z,69.34
2023-05-05T08:58:04.184Z,69.97
2023-05-05T09:03:08.966Z,70.06
2023-05-05T09:08:12.945Z,67.82
2023-05-05T09:13:17.269Z,65.74
2023-05-05T09:18:20.158Z,65.67
2023-05-05T09:23:23.103Z,59.79
2023-05-05T09:28:28.169Z,60.07
2023-05-05T09:33:32.759Z,59.38
2023-05-05T09:38:35.887Z,55.68
2023-05-05T09:43:52.835Z,55.33
2023-05-05T09:48:56.531Z,54.26
2023-05-05T09:53:59.447Z,54.75
2023-05-05T09:59:10.503Z,55.16
2023-05-05T10:04:24.864Z,52.90
2023-05-05T10:09:34.024Z,50.97
2023-05-05T10:14:38.865Z,52.43
2023-05-05T10:19:43.645Z,53.33
2023-05-05T10:24:55.865Z,51.82
2023-05-05T10:30:06.691Z,53.04
2023-05-05T10:35:10.967Z,52.73
2023-05-05T10:40:15.912Z,51.89
2023-05-05T10:45:20.888Z,55.33
2023-05-05T10:50:30.793Z,54.09
2023-05-05T10:55:40.929Z,53.26
2023-05-05T11:00:52.689Z,51.89
2023-05-05T11:06:16.591Z,51.84
2023-05-05T11:11:57.746Z,50.44
2023-05-05T11:17:02.910Z,48.86
2023-05-05T11:22:10.369Z,48.53
2023-05-05T11:27:13.155Z,47.33
2023-05-05T11:32:19.912Z,48.27
2023-05-05T11:37:24.629Z,46.37
2023-05-05T11:42:29.193Z,44.93
2023-05-05T11:47:33.887Z,40.79
2023-05-05T11:52:37.414Z,41.14
2023-05-05T11:57:40.144Z,41.16
2023-05-05T12:02:44.342Z,40.54
2023-05-05T12:07:48.977Z,41.32
2023-05-05T12:12:55.551Z,40.22
2023-05-05T12:18:03.432Z,39.36
2023-05-05T12:23:09.566Z,40.43
2023-05-05T12:28:12.269Z,40.56
2023-05-05T12:33:20.996Z,40.78
2023-05-05T12:38:25.155Z,39.88
2023-05-05T12:43:33.022Z,37.13
2023-05-05T12:48:40.124Z,35.53
2023-05-05T12:53:43.964Z,33.73
2023-05-05T12:58:49.656Z,35.41
2023-05-05T13:04:07.418Z,34.01
2023-05-05T13:09:13.546Z,35.40
2023-05-05T13:14:16.320Z,33.45
2023-05-05T13:19:21.083Z,35.43
2023-05-05T13:24:42.200Z,35.90
2023-05-05T13:29:50.044Z,37.20
2023-05-05T13:34:55.010Z,41.62
2023-05-05T13:39:59.314Z,44.37
2023-05-05T13:45:06.773Z,45.92
2023-05-05T13:50:14.620Z,48.62
2023-05-05T13:55:17.737Z,50.74
2023-05-05T14:00:21.432Z,50.24
2023-05-05T14:05:27.050Z,51.31
2023-05-05T14:10:31.086Z,54.63
2023-05-05T14:15:34.110Z,56.30
2023-05-05T14:20:39.221Z,57.67
2023-05-05T14:25:42.720Z,62.03
2023-05-05T14:30:46.126Z,64.98
2023-05-05T14:35:50.469Z,64.25
2023-05-05T14:40:53.263Z,64.27
2023-05-05T14:45:58.289Z,67.94
2023-05-05T14:51:04.173Z,67.32
2023-05-05T14:56:08.395Z,67.46
2023-05-05T15:01:13.594Z,67.03
2023-05-05T15:06:18.045Z,67.88
2023-05-05T15:11:23.656Z,67.07
2023-05-05T15:16:28.920Z,68.90
2023-05-05T15:21:33.551Z,67.52
2023-05-05T15:26:36.615Z,61.01
2023-05-05T15:31:41.419Z,58.19
2023-05-05T15:36:46.183Z,57.08
2023-05-05T15:41:49.723Z,54.23
2023-05-05T15:46:52.487Z,51.41
2023-05-05T15:51:57.069Z,45.85
2023-05-05T15:57:01.334Z,48.03
2023-05-05T16:02:04.356Z,48.51
2023-05-05T16:07:09.306Z,48.31
2023-05-05T16:12:12.159Z,47.86
2023-05-05T16:17:15.213Z,51.92
2023-05-05T16:22:20.963Z,53.07
2023-05-05T16:27:24.546Z,53.16
2023-05-05T16:32:27.305Z,55.47
2023-05-05T16:37:34.241Z,54.95
2023-05-05T16:42:37.849Z,43.16
2023-05-05T16:47:40.748Z,49.92
2023-05-05T16:52:45.272Z,51.60
2023-05-05T16:57:48.248Z,51.39
2023-05-05T17:02:51.104Z,42.77
2023-05-05T17:07:55.234Z,48.89
2023-05-05T17:12:58.316Z,45.76
2023-05-05T17:18:02.757Z,44.49
2023-05-05T17:23:08.721Z,41.63
2023-05-05T17:28:12.131Z,44.15
2023-05-05T17:33:18.276Z,44.78
2023-05-05T17:38:22.454Z,46.99
2023-05-05T17:43:26.771Z,49.06
2023-05-05T17:48:29.685Z,50.51
2023-05-05T17:53:35.310Z,52.14
2023-05-05T17:58:39.181Z,53.64
2023-05-05T18:03:42.136Z,55.71
2023-05-05T18:08:46.604Z,64.27
2023-05-05T18:13:49.930Z,72.29
2023-05-05T18:18:55.199Z,75.57
2023-05-05T18:24:11.646Z,77.86
2023-05-05T18:29:23.345Z,80.56
2023-05-05T18:34:29.355Z,79.91
2023-05-05T18:39:33.540Z,83.65
2023-05-05T18:44:36.357Z,85.49
2023-05-05T18:49:40.327Z,84.90
2023-05-05T18:54:46.154Z,87.64
2023-05-05T18:59:49.090Z,89.79
2023-05-05T19:04:52.486Z,90.59
2023-05-05T19:09:56.673Z,93.65
2023-05-05T19:14:59.434Z,91.66
2023-05-05T19:20:03.169Z,94.89
2023-05-05T19:25:08.196Z,94.87
2023-05-05T19:30:13.896Z,97.58
2023-05-05T19:35:16.908Z,98.18
2023-05-05T19:40:21.134Z,97.50
2023-05-05T19:45:23.950Z,98.25
2023-05-05T19:50:30.747Z,99.31
2023-05-05T19:55:35.593Z,99.65
2023-05-05T20:00:38.430Z,100.00
2023-05-05T20:05:42.048Z,98.69
2023-05-05T20:10:46.944Z,97.91
2023-05-05T20:15:49.696Z,100.00
2023-05-05T20:20:52.526Z,100.00
2023-05-05T20:25:57.395Z,100.00
2023-05-05T20:31:00.782Z,100.00
2023-05-05T20:36:03.727Z,100.00
2023-05-05T20:41:08.078Z,100.00
2023-05-05T20:46:13.215Z,100.00
2023-05-05T20:51:17.181Z,100.00
2023-05-05T20:56:21.766Z,100.00
2023-05-05T21:01:24.762Z,100.00
2023-05-05T21:06:27.590Z,100.00
2023-05-05T21:11:31.781Z,100.00
2023-05-05T21:16:34.545Z,100.00
2023-05-05T21:21:37.455Z,100.00
2023-05-05T21:26:43.475Z,100.00
2023-05-05T21:31:46.524Z,100.00
2023-05-05T21:36:49.396Z,100.00
2023-05-05T21:41:53.891Z,100.00
2023-05-05T21:46:56.730Z,100.00
2023-05-05T21:51:59.589Z,100.00
2023-05-05T21:57:04.479Z,100.00
2023-05-05T22:02:07.269Z,100.00
2023-05-05T22:07:10.282Z,100.00
2023-05-05T22:12:14.376Z,100.00
2023-05-05T22:17:17.489Z,100.00
2023-05-05T22:22:20.466Z,100.00
2023-05-05T22:27:25.213Z,100.00
2023-05-05T22:32:28.050Z,100.00
2023-05-05T22:37:30.926Z,100.00
2023-05-05T22:42:35.112Z,100.00
2023-05-05T22:47:38.412Z,100.00
2023-05-05T22:52:41.225Z,100.00
2023-05-05T22:57:45.323Z,100.00
2023-05-05T23:02:48.177Z,100.00
2023-05-05T23:07:51.128Z,100.00
2023-05-05T23:12:55.376Z,100.00
2023-05-05T23:17:58.218Z,100.00
2023-05-05T23:23:01.214Z,100.00
2023-05-05T23:28:05.885Z,100.00
2023-05-05T23:33:08.721Z,100.00
2023-05-05T23:38:11.585Z,100.00
2023-05-05T23:43:15.810Z,100.00
2023-05-05T23:48:18.556Z,100.00
2023-05-05T23:53:21.360Z,100.00
2023-05-05T23:58:25.636Z,100.00
